createdAt,value
2022-08-20T00:01:41.820Z,15.00
2022-08-20T00:04:14.554Z,17.17
2022-08-20T00:06:45.198Z,11.75
2022-08-20T00:09:15.784Z,13.68
2022-08-20T00:11:46.671Z,22.77
2022-08-20T00:14:15.825Z,12.10
2022-08-20T00:16:45.743Z,13.82
2022-08-20T00:19:14.320Z,8.52
2022-08-20T00:21:48.610Z,19.00
2022-08-20T00:24:19.781Z,19.63
2022-08-20T00:26:52.153Z,16.38
2022-08-20T00:29:23.891Z,14.68
2022-08-20T00:31:53.998Z,16.92
2022-08-20T00:34:21.500Z,16.83
2022-08-20T00:36:51.903Z,14.68
2022-08-20T00:39:21.794Z,19.73
2022-08-20T00:41:54.308Z,17.88
2022-08-20T00:44:26.243Z,13.50
2022-08-20T00:46:56.799Z,18.10
2022-08-20T00:49:30.764Z,15.57
2022-08-20T00:52:09.616Z,14.75
2022-08-20T00:54:46.636Z,18.20
2022-08-20T00:58:01.781Z,15.98
2022-08-20T01:03:05.063Z,17.98
2022-08-20T01:05:43.991Z,20.25
2022-08-20T01:08:13.552Z,19.88
2022-08-20T01:10:47.401Z,20.20
2022-08-20T01:13:32.393Z,13.38
2022-08-20T01:16:03.558Z,14.90
2022-08-20T01:18:32.871Z,14.18
2022-08-20T01:21:04.219Z,17.73
2022-08-20T01:24:02.173Z,16.45
2022-08-20T01:26:38.041Z,17.60
2022-08-20T01:29:20.954Z,14.38
2022-08-20T01:31:53.948Z,14.40
2022-08-20T01:34:23.865Z,16.52
2022-08-20T01:37:02.652Z,12.98
2022-08-20T01:39:36.324Z,12.98
2022-08-20T01:42:13.033Z,16.10
2022-08-20T01:44:47.352Z,21.25
2022-08-20T01:47:25.894Z,15.27
2022-08-20T01:50:19.876Z,20.13
2022-08-20T01:53:09.160Z,12.82
2022-08-20T01:55:42.209Z,24.63
2022-08-20T01:58:14.140Z,17.02
2022-08-20T02:00:46.774Z,20.75
2022-08-20T02:03:16.909Z,21.27
2022-08-20T02:05:47.962Z,14.30
2022-08-20T02:08:19.042Z,20.20
2022-08-20T02:10:50.554Z,16.05
2022-08-20T02:13:20.856Z,18.75
2022-08-20T02:16:10.795Z,22.65
2022-08-20T02:18:38.733Z,15.05
2022-08-20T02:21:09.573Z,19.83
2022-08-20T02:23:39.854Z,15.18
2022-08-20T02:26:12.257Z,15.93
2022-08-20T02:28:41.964Z,14.57
2022-08-20T02:31:11.805Z,18.55
2022-08-20T02:33:43.050Z,18.42
2022-08-20T02:36:31.065Z,18.92
2022-08-20T02:39:02.026Z,20.60
2022-08-20T02:41:33.122Z,19.10
2022-08-20T02:44:04.508Z,17.48
2022-08-20T02:46:37.894Z,23.85
2022-08-20T02:49:08.606Z,25.02
2022-08-20T02:51:43.949Z,31.85
2022-08-20T02:54:17.332Z,22.33
2022-08-20T02:56:47.868Z,32.55
2022-08-20T02:59:19.613Z,33.22
2022-08-20T03:01:56.660Z,28.25
2022-08-20T03:04:32.847Z,26.17
2022-08-20T03:07:02.559Z,22.63
2022-08-20T03:09:34.297Z,23.35
2022-08-20T03:12:05.091Z,20.42
2022-08-20T03:14:35.042Z,13.32
2022-08-20T03:17:05.639Z,18.42
2022-08-20T03:19:39.204Z,16.70
2022-08-20T03:22:13.288Z,23.27
2022-08-20T03:24:41.529Z,11.63
2022-08-20T03:27:12.534Z,14.82
2022-08-20T03:29:46.878Z,16.13
2022-08-20T03:34:44.544Z,15.85
2022-08-20T03:37:15.248Z,17.63
2022-08-20T03:39:45.288Z,18.98
2022-08-20T03:42:18.301Z,19.02
2022-08-20T03:44:47.717Z,16.60
2022-08-20T03:47:29.422Z,16.90
2022-08-20T03:50:04.287Z,17.70
2022-08-20T03:52:35.105Z,17.38
2022-08-20T03:55:09.230Z,15.73
2022-08-20T03:57:43.354Z,16.83
2022-08-20T04:00:17.194Z,22.48
2022-08-20T04:02:48.647Z,29.05
2022-08-20T04:05:19.870Z,26.13
2022-08-20T04:07:47.271Z,19.35
2022-08-20T04:10:18.490Z,22.88
2022-08-20T04:12:53.186Z,28.73
2022-08-20T04:15:27.194Z,29.55
2022-08-20T04:17:57.239Z,30.25
2022-08-20T04:20:30.012Z,35.42
2022-08-20T04:23:01.778Z,32.38
2022-08-20T04:25:43.269Z,26.83
2022-08-20T04:28:16.290Z,28.23
2022-08-20T04:30:51.693Z,33.70
2022-08-20T04:33:22.718Z,24.88
2022-08-20T04:36:05.757Z,22.98
2022-08-20T04:38:49.733Z,34.15
2022-08-20T04:41:23.475Z,32.17
2022-08-20T04:43:56.140Z,27.42
2022-08-20T04:46:29.190Z,30.00
2022-08-20T04:49:00.286Z,26.58
2022-08-20T04:51:31.645Z,29.05
2022-08-20T04:54:06.076Z,24.67
2022-08-20T04:56:42.635Z,26.80
2022-08-20T04:59:14.537Z,28.27
2022-08-20T05:01:46.014Z,27.30
2022-08-20T05:04:16.072Z,22.25
2022-08-20T05:06:47.552Z,27.13
2022-08-20T05:09:19.781Z,31.40
2022-08-20T05:11:50.982Z,27.63
2022-08-20T05:14:21.331Z,26.02
2022-08-20T05:17:01.944Z,24.95
2022-08-20T05:19:30.086Z,16.80
2022-08-20T05:22:00.130Z,32.50
2022-08-20T05:24:30.180Z,28.35
2022-08-20T05:27:01.885Z,31.10
2022-08-20T05:29:32.356Z,26.30
2022-08-20T05:32:03.718Z,30.45
2022-08-20T05:34:32.213Z,29.65
2022-08-20T05:37:07.732Z,30.70
2022-08-20T05:39:39.158Z,30.73
2022-08-20T05:42:11.200Z,43.70
2022-08-20T05:44:40.352Z,27.92
2022-08-20T05:47:12.837Z,27.45
2022-08-20T05:49:44.589Z,27.02
2022-08-20T05:52:15.437Z,28.25
2022-08-20T05:54:43.019Z,35.80
2022-08-20T05:57:13.157Z,33.72
2022-08-20T05:59:43.405Z,30.30
2022-08-20T06:02:35.030Z,27.63
2022-08-20T06:05:05.384Z,35.10
2022-08-20T06:07:37.428Z,35.90
2022-08-20T06:10:12.983Z,27.63
2022-08-20T06:12:45.815Z,28.08
2022-08-20T06:15:16.409Z,37.60
2022-08-20T06:17:44.154Z,30.15
2022-08-20T06:20:13.164Z,27.98
2022-08-20T06:22:45.415Z,35.00
2022-08-20T06:25:16.189Z,31.25
2022-08-20T06:27:49.351Z,24.45
2022-08-20T06:30:25.794Z,36.85
2022-08-20T06:32:56.280Z,33.45
2022-08-20T06:35:25.390Z,27.38
2022-08-20T06:37:56.447Z,29.88
2022-08-20T06:40:31.768Z,39.05
2022-08-20T06:43:04.264Z,31.70
2022-08-20T06:45:35.788Z,30.08
2022-08-20T06:48:11.121Z,30.20
2022-08-20T06:50:48.524Z,21.35
2022-08-20T06:53:18.344Z,23.45
2022-08-20T06:55:50.545Z,29.63
2022-08-20T06:58:36.834Z,25.80
2022-08-20T07:01:11.920Z,27.58
2022-08-20T07:03:54.882Z,27.88
2022-08-20T07:06:25.955Z,24.20
2022-08-20T07:08:55.725Z,20.85
2022-08-20T07:11:31.932Z,22.33
2022-08-20T07:14:07.425Z,24.15
2022-08-20T07:16:37.381Z,22.65
2022-08-20T07:19:05.158Z,15.30
2022-08-20T07:21:36.977Z,25.02
2022-08-20T07:24:07.719Z,22.90
2022-08-20T07:26:40.809Z,22.45
2022-08-20T07:29:13.081Z,25.63
2022-08-20T07:32:02.699Z,23.27
2022-08-20T07:34:34.552Z,22.65
2022-08-20T07:37:07.846Z,21.20
2022-08-20T07:39:36.102Z,21.25
2022-08-20T07:42:10.295Z,17.77
2022-08-20T07:44:41.093Z,24.60
2022-08-20T07:47:09.886Z,19.05
2022-08-20T07:49:40.289Z,23.35
2022-08-20T07:52:10.950Z,25.52
2022-08-20T07:54:43.322Z,22.98
2022-08-20T07:57:22.473Z,21.15
2022-08-20T07:59:52.181Z,21.10
2022-08-20T08:02:31.649Z,21.15
2022-08-20T08:05:19.052Z,18.48
2022-08-20T08:07:51.287Z,22.38
2022-08-20T08:10:25.366Z,20.75
2022-08-20T08:13:04.791Z,21.73
2022-08-20T08:15:39.669Z,18.08
2022-08-20T08:18:31.996Z,28.67
2022-08-20T08:21:01.782Z,27.35
2022-08-20T08:23:31.857Z,23.05
2022-08-20T08:26:00.914Z,24.27
2022-08-20T08:28:33.645Z,20.92
2022-08-20T08:31:04.919Z,23.58
2022-08-20T08:33:35.493Z,24.35
2022-08-20T08:36:16.987Z,22.50
2022-08-20T08:38:49.278Z,26.30
2022-08-20T08:41:36.293Z,23.80
2022-08-20T08:44:16.715Z,23.90
2022-08-20T08:46:53.163Z,26.13
2022-08-20T08:49:37.435Z,21.63
2022-08-20T08:52:19.276Z,19.50
2022-08-20T08:54:54.068Z,25.15
2022-08-20T08:57:32.954Z,25.20
2022-08-20T09:00:16.313Z,17.48
2022-08-20T09:03:02.474Z,20.17
2022-08-20T09:05:47.393Z,23.40
2022-08-20T09:11:24.919Z,17.42
2022-08-20T09:13:58.445Z,20.55
2022-08-20T09:16:28.608Z,22.50
2022-08-20T09:19:13.383Z,19.80
2022-08-20T09:21:42.196Z,19.92
2022-08-20T09:24:10.032Z,22.00
2022-08-20T09:26:40.445Z,22.58
2022-08-20T09:29:10.891Z,22.25
2022-08-20T09:31:45.230Z,26.13
2022-08-20T09:34:19.132Z,22.90
2022-08-20T09:36:52.568Z,21.10
2022-08-20T09:39:24.558Z,22.45
2022-08-20T09:41:54.501Z,18.95
2022-08-20T09:44:29.289Z,19.60
2022-08-20T09:47:04.285Z,23.35
2022-08-20T09:49:32.259Z,21.13
2022-08-20T09:52:08.793Z,25.55
2022-08-20T09:55:06.885Z,24.20
2022-08-20T10:00:23.182Z,20.40
2022-08-20T10:02:55.192Z,21.60
2022-08-20T10:05:25.794Z,24.17
2022-08-20T10:07:57.273Z,25.60
2022-08-20T10:10:25.006Z,19.95
2022-08-20T10:12:56.467Z,17.10
2022-08-20T10:15:24.190Z,27.25
2022-08-20T10:17:57.225Z,30.98
2022-08-20T10:20:25.751Z,33.97
2022-08-20T10:22:56.383Z,30.00
2022-08-20T10:25:25.233Z,25.70
2022-08-20T10:27:58.137Z,30.05
2022-08-20T10:30:30.699Z,33.13
2022-08-20T10:33:02.378Z,37.90
2022-08-20T10:35:33.787Z,32.13
2022-08-20T10:38:03.124Z,33.35
2022-08-20T10:40:34.312Z,36.10
2022-08-20T10:43:03.845Z,32.03
2022-08-20T10:45:34.629Z,31.38
2022-08-20T10:48:06.504Z,34.03
2022-08-20T10:50:42.150Z,27.80
2022-08-20T10:53:10.576Z,26.52
2022-08-20T10:55:40.790Z,23.13
2022-08-20T10:58:11.878Z,26.92
2022-08-20T11:00:42.090Z,25.10
2022-08-20T11:03:13.626Z,20.42
2022-08-20T11:05:44.297Z,29.13
2022-08-20T11:08:13.417Z,24.23
2022-08-20T11:10:42.689Z,25.17
2022-08-20T11:13:14.669Z,24.80
2022-08-20T11:15:47.000Z,24.95
2022-08-20T11:18:18.282Z,25.13
2022-08-20T11:20:49.504Z,25.00
2022-08-20T11:23:19.833Z,30.25
2022-08-20T11:25:49.220Z,25.30
2022-08-20T11:28:19.319Z,31.85
2022-08-20T11:31:04.779Z,25.75
2022-08-20T11:33:34.771Z,21.48
2022-08-20T11:36:04.521Z,25.23
2022-08-20T11:38:35.663Z,20.35
2022-08-20T11:41:07.590Z,23.75
2022-08-20T11:43:36.415Z,23.80
2022-08-20T11:46:08.419Z,23.65
2022-08-20T11:48:36.531Z,22.65
2022-08-20T11:51:06.144Z,26.02
2022-08-20T11:53:36.380Z,32.00
2022-08-20T11:56:13.677Z,36.80
2022-08-20T11:58:44.469Z,40.20
2022-08-20T12:01:14.042Z,37.85
2022-08-20T12:03:42.672Z,34.60
2022-08-20T12:06:13.663Z,31.33
2022-08-20T12:08:41.317Z,33.33
2022-08-20T12:11:12.494Z,30.60
2022-08-20T12:13:47.740Z,26.25
2022-08-20T12:16:19.019Z,29.83
2022-08-20T12:18:48.899Z,32.72
2022-08-20T12:21:18.664Z,27.20
2022-08-20T12:23:49.220Z,28.85
2022-08-20T12:26:20.737Z,22.33
2022-08-20T12:28:50.762Z,28.20
2022-08-20T12:31:18.104Z,27.35
2022-08-20T12:33:49.679Z,24.10
2022-08-20T12:36:19.373Z,23.77
2022-08-20T12:38:51.656Z,32.83
2022-08-20T12:41:23.589Z,34.65
2022-08-20T12:43:54.952Z,33.50
2022-08-20T12:46:28.710Z,30.80
2022-08-20T12:48:59.070Z,31.75
2022-08-20T12:51:31.738Z,33.10
2022-08-20T12:54:05.964Z,27.58
2022-08-20T12:56:35.664Z,24.95
2022-08-20T12:59:05.605Z,25.67
2022-08-20T13:01:37.887Z,24.80
2022-08-20T13:04:06.932Z,20.90
2022-08-20T13:06:38.014Z,24.92
2022-08-20T13:09:11.392Z,19.25
2022-08-20T13:11:39.862Z,21.13
2022-08-20T13:14:12.143Z,31.23
2022-08-20T13:16:43.145Z,28.95
2022-08-20T13:19:14.304Z,34.33
2022-08-20T13:21:45.407Z,30.63
2022-08-20T13:24:25.159Z,29.60
2022-08-20T13:26:56.521Z,27.83
2022-08-20T13:29:28.655Z,23.45
2022-08-20T13:32:04.167Z,22.35
2022-08-20T13:34:34.994Z,30.23
2022-08-20T13:37:27.792Z,20.60
2022-08-20T13:40:01.950Z,23.23
2022-08-20T13:42:35.322Z,22.77
2022-08-20T13:45:07.609Z,22.75
2022-08-20T13:47:40.552Z,19.00
2022-08-20T13:50:17.929Z,14.02
2022-08-20T13:53:18.195Z,18.17
2022-08-20T13:55:49.050Z,24.40
2022-08-20T13:58:20.629Z,22.65
2022-08-20T14:00:53.909Z,21.60
2022-08-20T14:03:25.922Z,21.13
2022-08-20T14:05:58.028Z,17.83
2022-08-20T14:08:25.553Z,20.67
2022-08-20T14:10:54.951Z,21.85
2022-08-20T14:13:28.025Z,20.17
2022-08-20T14:15:56.414Z,29.70
2022-08-20T14:18:27.803Z,23.17
2022-08-20T14:20:58.643Z,24.52
2022-08-20T14:23:29.829Z,24.95
2022-08-20T14:26:01.266Z,22.08
2022-08-20T14:28:35.439Z,25.95
2022-08-20T14:31:03.556Z,37.97
2022-08-20T14:33:32.260Z,38.95
2022-08-20T14:36:02.052Z,29.63
2022-08-20T14:38:33.824Z,30.15
2022-08-20T14:41:07.940Z,35.70
2022-08-20T14:43:38.980Z,45.58
2022-08-20T14:46:08.093Z,39.03
2022-08-20T14:48:38.046Z,39.85
2022-08-20T14:51:11.696Z,36.38
2022-08-20T14:53:41.933Z,33.83
2022-08-20T14:56:12.330Z,33.78
2022-08-20T14:58:44.560Z,28.83
2022-08-20T15:01:16.151Z,30.25
2022-08-20T15:03:44.321Z,29.33
2022-08-20T15:06:22.141Z,22.95
2022-08-20T15:08:51.597Z,21.63
2022-08-20T15:11:23.161Z,22.58
2022-08-20T15:13:56.961Z,37.58
2022-08-20T15:16:29.463Z,32.75
2022-08-20T15:19:01.834Z,33.05
2022-08-20T15:21:45.091Z,29.35
2022-08-20T15:24:19.292Z,29.30
2022-08-20T15:26:48.193Z,28.15
2022-08-20T15:29:23.250Z,28.52
2022-08-20T15:31:55.156Z,24.65
2022-08-20T15:34:27.698Z,26.70
2022-08-20T15:37:00.159Z,32.45
2022-08-20T15:39:28.285Z,23.73
2022-08-20T15:41:59.601Z,21.92
2022-08-20T15:47:31.993Z,20.75
2022-08-20T15:50:32.500Z,26.27
2022-08-20T15:53:31.932Z,24.10
2022-08-20T15:57:01.440Z,26.15
2022-08-20T16:00:02.350Z,26.25
2022-08-20T16:03:13.726Z,20.08
2022-08-20T16:05:56.094Z,24.08
2022-08-20T16:08:50.645Z,19.63
2022-08-20T16:11:39.377Z,21.25
2022-08-20T16:14:28.401Z,20.05
2022-08-20T16:17:07.936Z,22.38
2022-08-20T16:19:50.148Z,21.23
2022-08-20T16:22:19.476Z,21.98
2022-08-20T16:24:51.012Z,31.45
2022-08-20T16:27:47.618Z,20.33
2022-08-20T16:30:39.912Z,23.30
2022-08-20T16:33:34.424Z,17.33
2022-08-20T16:36:13.118Z,16.75
2022-08-20T16:38:45.001Z,16.92
2022-08-20T16:41:49.168Z,18.50
2022-08-20T16:44:55.575Z,19.42
2022-08-20T16:47:37.230Z,21.05
2022-08-20T16:50:50.206Z,29.20
2022-08-20T16:53:25.629Z,26.23
2022-08-20T16:55:58.736Z,19.27
2022-08-20T16:58:30.096Z,21.85
2022-08-20T17:01:20.166Z,23.10
2022-08-20T17:03:51.173Z,32.30
2022-08-20T17:06:47.588Z,27.52
2022-08-20T17:09:35.532Z,17.20
2022-08-20T17:12:25.293Z,23.63
2022-08-20T17:15:00.786Z,27.38
2022-08-20T17:17:40.090Z,24.10
2022-08-20T17:20:45.007Z,24.73
2022-08-20T17:23:20.462Z,20.70
2022-08-20T17:26:04.941Z,23.55
2022-08-20T17:28:35.551Z,24.13
2022-08-20T17:31:07.195Z,26.17
2022-08-20T17:33:58.193Z,19.38
2022-08-20T17:36:29.887Z,25.05
2022-08-20T17:39:03.384Z,20.15
2022-08-20T17:41:36.580Z,22.27
2022-08-20T17:44:24.476Z,29.00
2022-08-20T17:46:56.852Z,33.03
2022-08-20T17:50:00.494Z,32.20
2022-08-20T17:52:44.097Z,21.52
2022-08-20T17:55:15.751Z,33.10
2022-08-20T17:57:56.527Z,28.90
2022-08-20T18:00:30.610Z,30.17
2022-08-20T18:03:32.679Z,25.92
2022-08-20T18:06:20.007Z,25.75
2022-08-20T18:08:50.247Z,27.95
2022-08-20T18:11:55.493Z,28.23
2022-08-20T18:14:47.700Z,29.40
2022-08-20T18:17:38.280Z,28.05
2022-08-20T18:20:21.886Z,27.70
2022-08-20T18:23:15.688Z,26.75
2022-08-20T18:26:18.532Z,23.13
2022-08-20T18:28:51.279Z,27.20
2022-08-20T18:31:42.501Z,35.70
2022-08-20T18:34:17.292Z,36.65
2022-08-20T18:37:26.622Z,33.67
2022-08-20T18:40:11.317Z,29.27
2022-08-20T18:42:44.429Z,27.30
2022-08-20T18:45:26.955Z,25.30
2022-08-20T18:48:00.988Z,27.75
2022-08-20T18:50:47.401Z,23.15
2022-08-20T18:53:33.988Z,24.67
2022-08-20T18:56:07.733Z,26.75
2022-08-20T18:59:10.201Z,27.42
2022-08-20T19:01:40.787Z,25.75
2022-08-20T19:04:24.329Z,27.80
2022-08-20T19:07:05.563Z,22.60
2022-08-20T19:10:27.928Z,21.98
2022-08-20T19:13:34.109Z,19.67
2022-08-20T19:16:15.023Z,28.65
2022-08-20T19:19:03.577Z,30.15
2022-08-20T19:21:42.414Z,28.15
2022-08-20T19:24:17.491Z,28.27
2022-08-20T19:26:54.384Z,24.42
2022-08-20T19:29:29.313Z,20.42
2022-08-20T19:32:07.957Z,23.55
2022-08-20T19:34:38.009Z,24.05
2022-08-20T19:37:34.803Z,31.13
2022-08-20T19:40:28.178Z,30.85
2022-08-20T19:45:57.648Z,28.42
2022-08-20T19:49:07.162Z,30.02
2022-08-20T19:52:14.015Z,27.80
2022-08-20T19:55:04.229Z,29.73
2022-08-20T19:57:56.380Z,29.83
2022-08-20T20:00:29.078Z,37.90
2022-08-20T20:03:08.257Z,36.55
2022-08-20T20:05:48.210Z,28.38
2022-08-20T20:08:18.327Z,26.88
2022-08-20T20:11:03.169Z,31.73
2022-08-20T20:13:39.655Z,24.88
2022-08-20T20:16:20.084Z,27.98
2022-08-20T20:19:03.752Z,31.92
2022-08-20T20:21:43.702Z,36.58
2022-08-20T20:24:28.363Z,30.40
2022-08-20T20:27:14.994Z,36.38
2022-08-20T20:29:49.895Z,26.35
2022-08-20T20:32:26.786Z,24.27
2022-08-20T20:35:02.532Z,28.33
2022-08-20T20:37:49.766Z,22.63
2022-08-20T20:40:49.626Z,28.55
2022-08-20T20:43:39.576Z,29.45
2022-08-20T20:46:20.986Z,27.73
2022-08-20T20:49:02.253Z,28.95
2022-08-20T20:51:42.176Z,33.50
2022-08-20T20:54:50.817Z,27.67
2022-08-20T20:57:37.744Z,29.45
2022-08-20T21:00:19.148Z,29.83
2022-08-20T21:02:46.734Z,37.15
2022-08-20T21:05:21.511Z,29.50
2022-08-20T21:08:04.266Z,29.10
2022-08-20T21:10:38.972Z,37.00
2022-08-20T21:13:11.036Z,36.15
2022-08-20T21:15:40.423Z,29.10
2022-08-20T21:18:14.241Z,34.05
2022-08-20T21:20:46.106Z,30.58
2022-08-20T21:23:14.552Z,31.75
2022-08-20T21:25:44.681Z,30.98
2022-08-20T21:28:16.674Z,33.08
2022-08-20T21:30:47.551Z,33.20
2022-08-20T21:33:19.114Z,27.75
2022-08-20T21:35:50.161Z,34.92
2022-08-20T21:38:20.475Z,34.70
2022-08-20T21:40:51.396Z,31.77
2022-08-20T21:43:21.266Z,28.77
2022-08-20T21:45:52.096Z,29.70
2022-08-20T21:51:09.700Z,33.30
2022-08-20T21:53:39.530Z,30.88
2022-08-20T21:56:11.941Z,37.58
2022-08-20T21:58:57.171Z,36.47
2022-08-20T22:01:28.368Z,47.08
2022-08-20T22:03:58.724Z,47.95
2022-08-20T22:06:33.261Z,34.90
2022-08-20T22:09:04.841Z,32.70
2022-08-20T22:11:37.125Z,27.75
2022-08-20T22:14:12.644Z,27.77
2022-08-20T22:16:45.564Z,36.67
2022-08-20T22:19:17.574Z,36.20
2022-08-20T22:21:48.408Z,37.35
2022-08-20T22:24:21.850Z,35.15
2022-08-20T22:26:51.183Z,30.40
2022-08-20T22:29:22.293Z,37.25
2022-08-20T22:31:53.607Z,28.13
2022-08-20T22:34:23.012Z,27.63
2022-08-20T22:36:56.041Z,29.58
2022-08-20T22:39:27.459Z,35.10
2022-08-20T22:42:00.339Z,35.35
2022-08-20T22:44:31.701Z,36.30
2022-08-20T22:47:05.689Z,31.00
2022-08-20T22:49:40.177Z,38.67
2022-08-20T22:54:44.628Z,42.00
2022-08-20T22:57:20.444Z,46.47
2022-08-20T22:59:53.527Z,37.05
2022-08-20T23:02:26.753Z,33.20
2022-08-20T23:04:57.336Z,31.58
2022-08-20T23:07:28.618Z,34.60
2022-08-20T23:09:58.448Z,36.17
2022-08-20T23:12:29.769Z,31.58
2022-08-20T23:14:59.403Z,29.15
2022-08-20T23:17:31.357Z,27.90
2022-08-20T23:19:59.134Z,29.25
2022-08-20T23:22:29.384Z,29.02
2022-08-20T23:25:00.660Z,27.95
2022-08-20T23:27:34.775Z,32.15
2022-08-20T23:30:06.456Z,35.22
2022-08-20T23:32:35.979Z,27.02
2022-08-20T23:35:10.547Z,29.55
2022-08-20T23:37:52.726Z,27.48
2022-08-20T23:40:26.864Z,37.42
2022-08-20T23:42:57.838Z,35.10
2022-08-20T23:45:27.201Z,30.45
2022-08-20T23:47:56.973Z,30.45
2022-08-20T23:50:31.212Z,39.22
2022-08-20T23:53:01.352Z,33.65
2022-08-20T23:55:33.075Z,36.25
2022-08-20T23:58:03.905Z,32.58
